sensor_id;sensor_type;location;lat;lon;timestamp;temperature;humidity
23259;DHT22;11798;51.528;7.240;2023-07-22T00:01:00;14.00;99.90
23259;DHT22;11798;51.528;7.240;2023-07-22T00:03:25;14.00;99.90
23259;DHT22;11798;51.528;7.240;2023-07-22T00:06:03;14.00;99.90
23259;DHT22;11798;51.528;7.240;2023-07-22T00:08:28;14.00;99.90
23259;DHT22;11798;51.528;7.240;2023-07-22T00:10:54;14.00;99.90
23259;DHT22;11798;51.528;7.240;2023-07-22T00:13:19;14.10;99.90
23259;DHT22;11798;51.528;7.240;2023-07-22T00:15:45;14.10;99.90
23259;DHT22;11798;51.528;7.240;2023-07-22T00:18:11;14.10;99.90
23259;DHT22;11798;51.528;7.240;2023-07-22T00:20:36;14.10;99.90
23259;DHT22;11798;51.528;7.240;2023-07-22T00:23:02;14.10;99.90
23259;DHT22;11798;51.528;7.240;2023-07-22T00:25:27;14.20;99.90
23259;DHT22;11798;51.528;7.240;2023-07-22T00:27:53;14.20;99.90
23259;DHT22;11798;51.528;7.240;2023-07-22T00:30:18;14.20;99.90
23259;DHT22;11798;51.528;7.240;2023-07-22T00:32:44;14.10;99.90
23259;DHT22;11798;51.528;7.240;2023-07-22T00:35:09;14.20;99.90
23259;DHT22;11798;51.528;7.240;2023-07-22T00:37:35;14.20;99.90
23259;DHT22;11798;51.528;7.240;2023-07-22T00:40:01;14.20;99.90
23259;DHT22;11798;51.528;7.240;2023-07-22T00:42:31;14.20;99.90
23259;DHT22;11798;51.528;7.240;2023-07-22T00:44:57;14.20;99.90
23259;DHT22;11798;51.528;7.240;2023-07-22T00:47:22;14.20;99.90
23259;DHT22;11798;51.528;7.240;2023-07-22T00:49:49;14.20;99.90
23259;DHT22;11798;51.528;7.240;2023-07-22T00:52:15;14.20;99.90
23259;DHT22;11798;51.528;7.240;2023-07-22T00:54:42;14.30;99.90
23259;DHT22;11798;51.528;7.240;2023-07-22T00:57:07;14.30;99.90
23259;DHT22;11798;51.528;7.240;2023-07-22T00:59:34;14.30;99.90
23259;DHT22;11798;51.528;7.240;2023-07-22T01:02:00;14.20;99.90
23259;DHT22;11798;51.528;7.240;2023-07-22T01:04:25;14.20;99.90
23259;DHT22;11798;51.528;7.240;2023-07-22T01:06:51;14.20;99.90
23259;DHT22;11798;51.528;7.240;2023-07-22T01:09:20;14.20;99.90
23259;DHT22;11798;51.528;7.240;2023-07-22T01:11:46;14.20;99.90
23259;DHT22;11798;51.528;7.240;2023-07-22T01:14:11;14.30;99.90
23259;DHT22;11798;51.528;7.240;2023-07-22T01:16:37;14.30;99.90
23259;DHT22;11798;51.528;7.240;2023-07-22T01:19:03;14.20;99.90
23259;DHT22;11798;51.528;7.240;2023-07-22T01:21:31;14.30;99.90
23259;DHT22;11798;51.528;7.240;2023-07-22T01:23:57;14.20;99.90
23259;DHT22;11798;51.528;7.240;2023-07-22T01:26:23;14.30;99.90
23259;DHT22;11798;51.528;7.240;2023-07-22T01:28:49;14.30;99.90
23259;DHT22;11798;51.528;7.240;2023-07-22T01:31:15;14.30;99.90
23259;DHT22;11798;51.528;7.240;2023-07-22T01:33:40;14.40;99.90
23259;DHT22;11798;51.528;7.240;2023-07-22T01:36:06;14.30;99.90
23259;DHT22;11798;51.528;7.240;2023-07-22T01:38:33;14.30;99.90
23259;DHT22;11798;51.528;7.240;2023-07-22T01:40:58;14.30;99.90
23259;DHT22;11798;51.528;7.240;2023-07-22T01:43:24;14.30;99.90
23259;DHT22;11798;51.528;7.240;2023-07-22T01:45:50;14.40;99.90
23259;DHT22;11798;51.528;7.240;2023-07-22T01:48:15;14.30;99.90
23259;DHT22;11798;51.528;7.240;2023-07-22T01:50:41;14.40;99.90
23259;DHT22;11798;51.528;7.240;2023-07-22T01:53:07;14.40;99.90
23259;DHT22;11798;51.528;7.240;2023-07-22T01:55:33;14.40;99.90
23259;DHT22;11798;51.528;7.240;2023-07-22T01:57:58;14.40;99.90
23259;DHT22;11798;51.528;7.240;2023-07-22T02:00:24;14.30;99.90
23259;DHT22;11798;51.528;7.240;2023-07-22T02:02:50;14.40;99.90
23259;DHT22;11798;51.528;7.240;2023-07-22T02:05:15;14.50;99.90
23259;DHT22;11798;51.528;7.240;2023-07-22T02:07:41;14.50;99.90
23259;DHT22;11798;51.528;7.240;2023-07-22T02:10:07;14.50;99.90
23259;DHT22;11798;51.528;7.240;2023-07-22T02:12:33;14.50;99.90
23259;DHT22;11798;51.528;7.240;2023-07-22T02:14:59;14.40;99.90
23259;DHT22;11798;51.528;7.240;2023-07-22T02:17:25;14.50;99.90
23259;DHT22;11798;51.528;7.240;2023-07-22T02:19:50;14.50;99.90
23259;DHT22;11798;51.528;7.240;2023-07-22T02:22:16;14.50;99.90
23259;DHT22;11798;51.528;7.240;2023-07-22T02:24:41;14.40;99.90
23259;DHT22;11798;51.528;7.240;2023-07-22T02:27:07;14.50;99.90
23259;DHT22;11798;51.528;7.240;2023-07-22T02:29:36;14.50;99.90
23259;DHT22;11798;51.528;7.240;2023-07-22T02:32:02;14.50;99.90
23259;DHT22;11798;51.528;7.240;2023-07-22T02:34:28;14.50;99.90
23259;DHT22;11798;51.528;7.240;2023-07-22T02:36:54;14.50;99.90
23259;DHT22;11798;51.528;7.240;2023-07-22T02:39:20;14.40;99.90
23259;DHT22;11798;51.528;7.240;2023-07-22T02:41:45;14.50;99.90
23259;DHT22;11798;51.528;7.240;2023-07-22T02:44:11;14.60;99.90
23259;DHT22;11798;51.528;7.240;2023-07-22T02:46:37;14.50;99.90
23259;DHT22;11798;51.528;7.240;2023-07-22T02:49:03;14.50;99.90
23259;DHT22;11798;51.528;7.240;2023-07-22T02:51:28;14.60;99.90
23259;DHT22;11798;51.528;7.240;2023-07-22T02:53:54;14.50;99.90
23259;DHT22;11798;51.528;7.240;2023-07-22T02:56:20;14.50;99.90
23259;DHT22;11798;51.528;7.240;2023-07-22T02:58:45;14.50;99.90
23259;DHT22;11798;51.528;7.240;2023-07-22T03:01:11;14.60;99.90
23259;DHT22;11798;51.528;7.240;2023-07-22T03:03:37;14.60;99.90
23259;DHT22;11798;51.528;7.240;2023-07-22T03:06:03;14.60;99.90
23259;DHT22;11798;51.528;7.240;2023-07-22T03:08:32;14.60;99.90
23259;DHT22;11798;51.528;7.240;2023-07-22T03:10:58;14.60;99.90
23259;DHT22;11798;51.528;7.240;2023-07-22T03:13:23;14.60;99.90
23259;DHT22;11798;51.528;7.240;2023-07-22T03:15:49;14.60;99.90
23259;DHT22;11798;51.528;7.240;2023-07-22T03:18:14;14.70;99.90
23259;DHT22;11798;51.528;7.240;2023-07-22T03:20:40;14.70;99.90
23259;DHT22;11798;51.528;7.240;2023-07-22T03:23:06;14.70;99.90
23259;DHT22;11798;51.528;7.240;2023-07-22T03:25:33;14.70;99.90
23259;DHT22;11798;51.528;7.240;2023-07-22T03:28:04;14.70;99.90
23259;DHT22;11798;51.528;7.240;2023-07-22T03:30:30;14.60;99.90
23259;DHT22;11798;51.528;7.240;2023-07-22T03:32:56;14.70;99.90
23259;DHT22;11798;51.528;7.240;2023-07-22T03:35:21;14.70;99.90
23259;DHT22;11798;51.528;7.240;2023-07-22T03:37:47;14.60;99.90
23259;DHT22;11798;51.528;7.240;2023-07-22T03:40:13;14.70;99.90
23259;DHT22;11798;51.528;7.240;2023-07-22T03:42:53;14.70;99.90
23259;DHT22;11798;51.528;7.240;2023-07-22T03:45:20;14.70;99.90
23259;DHT22;11798;51.528;7.240;2023-07-22T03:47:51;14.70;99.90
23259;DHT22;11798;51.528;7.240;2023-07-22T03:50:16;14.70;99.90
23259;DHT22;11798;51.528;7.240;2023-07-22T03:52:42;14.80;99.90
23259;DHT22;11798;51.528;7.240;2023-07-22T03:55:08;14.70;99.90
23259;DHT22;11798;51.528;7.240;2023-07-22T03:57:34;14.70;99.90
23259;DHT22;11798;51.528;7.240;2023-07-22T04:00:00;14.80;99.90
23259;DHT22;11798;51.528;7.240;2023-07-22T04:02:26;14.80;99.90
23259;DHT22;11798;51.528;7.240;2023-07-22T04:04:53;14.80;99.90
23259;DHT22;11798;51.528;7.240;2023-07-22T04:07:19;14.80;99.90
23259;DHT22;11798;51.528;7.240;2023-07-22T04:09:45;14.80;99.90
23259;DHT22;11798;51.528;7.240;2023-07-22T04:12:10;14.80;99.90
23259;DHT22;11798;51.528;7.240;2023-07-22T04:14:36;14.70;99.90
23259;DHT22;11798;51.528;7.240;2023-07-22T04:17:02;14.80;99.90
23259;DHT22;11798;51.528;7.240;2023-07-22T04:19:29;14.80;99.90
23259;DHT22;11798;51.528;7.240;2023-07-22T04:21:55;14.80;99.90
23259;DHT22;11798;51.528;7.240;2023-07-22T04:24:20;14.80;99.90
23259;DHT22;11798;51.528;7.240;2023-07-22T04:26:46;14.90;99.90
23259;DHT22;11798;51.528;7.240;2023-07-22T04:29:12;14.90;99.90
23259;DHT22;11798;51.528;7.240;2023-07-22T04:31:38;14.80;99.90
23259;DHT22;11798;51.528;7.240;2023-07-22T04:34:04;14.90;99.90
23259;DHT22;11798;51.528;7.240;2023-07-22T04:36:31;14.80;99.90
23259;DHT22;11798;51.528;7.240;2023-07-22T04:38:56;14.80;99.90
23259;DHT22;11798;51.528;7.240;2023-07-22T04:41:22;14.90;99.90
23259;DHT22;11798;51.528;7.240;2023-07-22T04:43:47;14.90;99.90
23259;DHT22;11798;51.528;7.240;2023-07-22T04:46:13;15.00;99.90
23259;DHT22;11798;51.528;7.240;2023-07-22T04:48:39;15.00;99.90
23259;DHT22;11798;51.528;7.240;2023-07-22T04:51:04;15.00;99.90
23259;DHT22;11798;51.528;7.240;2023-07-22T04:53:30;15.00;99.90
23259;DHT22;11798;51.528;7.240;2023-07-22T04:55:55;15.00;99.90
23259;DHT22;11798;51.528;7.240;2023-07-22T04:58:21;15.00;99.90
23259;DHT22;11798;51.528;7.240;2023-07-22T05:00:47;15.00;99.90
23259;DHT22;11798;51.528;7.240;2023-07-22T05:03:14;15.10;99.90
23259;DHT22;11798;51.528;7.240;2023-07-22T05:05:39;15.10;99.90
23259;DHT22;11798;51.528;7.240;2023-07-22T05:08:05;15.20;99.90
23259;DHT22;11798;51.528;7.240;2023-07-22T05:10:32;15.20;99.90
23259;DHT22;11798;51.528;7.240;2023-07-22T05:12:58;15.20;99.90
23259;DHT22;11798;51.528;7.240;2023-07-22T05:15:24;15.30;99.90
23259;DHT22;11798;51.528;7.240;2023-07-22T05:17:49;15.30;99.90
23259;DHT22;11798;51.528;7.240;2023-07-22T05:20:15;15.30;99.90
23259;DHT22;11798;51.528;7.240;2023-07-22T05:22:41;15.40;99.90
23259;DHT22;11798;51.528;7.240;2023-07-22T05:25:08;15.40;99.90
23259;DHT22;11798;51.528;7.240;2023-07-22T05:27:35;15.40;99.90
23259;DHT22;11798;51.528;7.240;2023-07-22T05:30:01;15.50;99.90
23259;DHT22;11798;51.528;7.240;2023-07-22T05:32:28;15.50;99.90
23259;DHT22;11798;51.528;7.240;2023-07-22T05:34:55;15.60;99.90
23259;DHT22;11798;51.528;7.240;2023-07-22T05:37:22;15.60;99.90
23259;DHT22;11798;51.528;7.240;2023-07-22T05:39:47;15.70;99.90
23259;DHT22;11798;51.528;7.240;2023-07-22T05:42:13;15.70;99.90
23259;DHT22;11798;51.528;7.240;2023-07-22T05:44:38;15.80;99.90
23259;DHT22;11798;51.528;7.240;2023-07-22T05:47:04;15.80;99.90
23259;DHT22;11798;51.528;7.240;2023-07-22T05:49:30;15.80;99.90
23259;DHT22;11798;51.528;7.240;2023-07-22T05:51:55;15.80;99.90
23259;DHT22;11798;51.528;7.240;2023-07-22T05:54:21;15.90;99.90
23259;DHT22;11798;51.528;7.240;2023-07-22T05:56:46;15.80;99.90
23259;DHT22;11798;51.528;7.240;2023-07-22T05:59:12;15.90;99.90
23259;DHT22;11798;51.528;7.240;2023-07-22T06:01:38;15.90;99.90
23259;DHT22;11798;51.528;7.240;2023-07-22T06:04:04;15.90;99.90
23259;DHT22;11798;51.528;7.240;2023-07-22T06:06:30;16.00;99.90
23259;DHT22;11798;51.528;7.240;2023-07-22T06:08:55;16.00;99.90
23259;DHT22;11798;51.528;7.240;2023-07-22T06:11:21;16.20;99.90
23259;DHT22;11798;51.528;7.240;2023-07-22T06:13:47;16.20;99.90
23259;DHT22;11798;51.528;7.240;2023-07-22T06:16:12;16.30;99.90
23259;DHT22;11798;51.528;7.240;2023-07-22T06:18:38;16.30;99.90
23259;DHT22;11798;51.528;7.240;2023-07-22T06:21:04;16.30;99.90
23259;DHT22;11798;51.528;7.240;2023-07-22T06:23:29;16.40;99.90
23259;DHT22;11798;51.528;7.240;2023-07-22T06:25:55;16.40;99.90
23259;DHT22;11798;51.528;7.240;2023-07-22T06:28:21;16.50;99.90
23259;DHT22;11798;51.528;7.240;2023-07-22T06:30:47;16.40;99.90
23259;DHT22;11798;51.528;7.240;2023-07-22T06:33:13;16.50;99.90
23259;DHT22;11798;51.528;7.240;2023-07-22T06:35:38;16.60;99.90
23259;DHT22;11798;51.528;7.240;2023-07-22T06:38:04;16.70;99.90
23259;DHT22;11798;51.528;7.240;2023-07-22T06:40:29;16.80;99.90
23259;DHT22;11798;51.528;7.240;2023-07-22T06:42:55;16.80;99.90
23259;DHT22;11798;51.528;7.240;2023-07-22T06:45:21;16.80;99.90
23259;DHT22;11798;51.528;7.240;2023-07-22T06:47:46;16.80;99.90
23259;DHT22;11798;51.528;7.240;2023-07-22T06:50:12;16.70;99.90
23259;DHT22;11798;51.528;7.240;2023-07-22T06:52:38;16.80;99.90
23259;DHT22;11798;51.528;7.240;2023-07-22T06:55:04;16.90;99.90
23259;DHT22;11798;51.528;7.240;2023-07-22T06:57:30;16.90;99.90
23259;DHT22;11798;51.528;7.240;2023-07-22T06:59:56;16.90;99.90
23259;DHT22;11798;51.528;7.240;2023-07-22T07:02:22;17.00;99.90
23259;DHT22;11798;51.528;7.240;2023-07-22T07:04:48;17.10;99.90
23259;DHT22;11798;51.528;7.240;2023-07-22T07:07:14;17.30;99.90
23259;DHT22;11798;51.528;7.240;2023-07-22T07:09:40;17.30;99.90
23259;DHT22;11798;51.528;7.240;2023-07-22T07:12:06;17.20;99.90
23259;DHT22;11798;51.528;7.240;2023-07-22T07:14:33;17.30;99.90
23259;DHT22;11798;51.528;7.240;2023-07-22T07:16:59;17.30;99.90
23259;DHT22;11798;51.528;7.240;2023-07-22T07:19:24;17.30;99.90
23259;DHT22;11798;51.528;7.240;2023-07-22T07:21:50;17.40;99.90
23259;DHT22;11798;51.528;7.240;2023-07-22T07:24:15;17.50;99.90
23259;DHT22;11798;51.528;7.240;2023-07-22T07:26:41;17.50;99.90
23259;DHT22;11798;51.528;7.240;2023-07-22T07:29:07;17.50;99.90
23259;DHT22;11798;51.528;7.240;2023-07-22T07:31:33;17.50;99.90
23259;DHT22;11798;51.528;7.240;2023-07-22T07:33:58;17.50;99.90
23259;DHT22;11798;51.528;7.240;2023-07-22T07:36:24;17.60;99.90
23259;DHT22;11798;51.528;7.240;2023-07-22T07:38:50;17.70;99.90
23259;DHT22;11798;51.528;7.240;2023-07-22T07:41:15;17.80;99.90
23259;DHT22;11798;51.528;7.240;2023-07-22T07:43:41;18.00;99.90
23259;DHT22;11798;51.528;7.240;2023-07-22T07:46:24;17.90;99.90
23259;DHT22;11798;51.528;7.240;2023-07-22T07:48:53;17.90;99.90
23259;DHT22;11798;51.528;7.240;2023-07-22T07:51:20;17.90;99.90
23259;DHT22;11798;51.528;7.240;2023-07-22T07:53:46;18.00;99.90
23259;DHT22;11798;51.528;7.240;2023-07-22T07:56:13;18.00;99.90
23259;DHT22;11798;51.528;7.240;2023-07-22T07:58:39;18.00;99.90
23259;DHT22;11798;51.528;7.240;2023-07-22T08:03:41;18.00;99.90
23259;DHT22;11798;51.528;7.240;2023-07-22T08:06:07;18.10;99.90
23259;DHT22;11798;51.528;7.240;2023-07-22T08:08:34;18.10;99.90
23259;DHT22;11798;51.528;7.240;2023-07-22T08:11:05;18.20;99.90
23259;DHT22;11798;51.528;7.240;2023-07-22T08:13:31;18.30;99.90
23259;DHT22;11798;51.528;7.240;2023-07-22T08:15:59;18.40;99.90
23259;DHT22;11798;51.528;7.240;2023-07-22T08:18:25;18.40;99.90
23259;DHT22;11798;51.528;7.240;2023-07-22T08:20:55;18.50;99.90
23259;DHT22;11798;51.528;7.240;2023-07-22T08:23:21;18.70;99.90
23259;DHT22;11798;51.528;7.240;2023-07-22T08:25:47;18.80;99.90
23259;DHT22;11798;51.528;7.240;2023-07-22T08:28:13;18.80;99.90
23259;DHT22;11798;51.528;7.240;2023-07-22T08:30:38;18.90;99.90
23259;DHT22;11798;51.528;7.240;2023-07-22T08:33:06;18.90;99.90
23259;DHT22;11798;51.528;7.240;2023-07-22T08:35:34;19.00;99.90
23259;DHT22;11798;51.528;7.240;2023-07-22T08:38:00;19.10;99.90
23259;DHT22;11798;51.528;7.240;2023-07-22T08:40:27;19.20;99.90
23259;DHT22;11798;51.528;7.240;2023-07-22T08:42:57;19.20;99.90
23259;DHT22;11798;51.528;7.240;2023-07-22T08:45:28;19.20;99.90
23259;DHT22;11798;51.528;7.240;2023-07-22T08:47:57;19.30;99.90
23259;DHT22;11798;51.528;7.240;2023-07-22T08:50:29;19.40;99.90
23259;DHT22;11798;51.528;7.240;2023-07-22T08:52:55;19.50;99.90
23259;DHT22;11798;51.528;7.240;2023-07-22T08:55:22;19.50;99.90
23259;DHT22;11798;51.528;7.240;2023-07-22T08:57:50;19.50;99.90
23259;DHT22;11798;51.528;7.240;2023-07-22T09:00:16;19.50;99.90
23259;DHT22;11798;51.528;7.240;2023-07-22T09:02:42;19.60;99.90
23259;DHT22;11798;51.528;7.240;2023-07-22T09:05:09;19.60;99.90
23259;DHT22;11798;51.528;7.240;2023-07-22T09:07:35;19.80;99.90
23259;DHT22;11798;51.528;7.240;2023-07-22T09:10:01;19.90;99.90
23259;DHT22;11798;51.528;7.240;2023-07-22T09:12:28;20.00;99.90
23259;DHT22;11798;51.528;7.240;2023-07-22T09:14:54;20.00;99.90
23259;DHT22;11798;51.528;7.240;2023-07-22T09:17:21;20.00;99.90
23259;DHT22;11798;51.528;7.240;2023-07-22T09:19:52;20.00;99.90
23259;DHT22;11798;51.528;7.240;2023-07-22T09:22:24;20.10;99.90
23259;DHT22;11798;51.528;7.240;2023-07-22T09:24:50;20.00;99.90
23259;DHT22;11798;51.528;7.240;2023-07-22T09:27:15;19.90;99.90
23259;DHT22;11798;51.528;7.240;2023-07-22T09:29:41;19.90;99.90
23259;DHT22;11798;51.528;7.240;2023-07-22T09:32:07;20.00;99.90
23259;DHT22;11798;51.528;7.240;2023-07-22T09:34:32;19.90;99.90
23259;DHT22;11798;51.528;7.240;2023-07-22T09:36:59;19.90;99.90
23259;DHT22;11798;51.528;7.240;2023-07-22T09:39:30;20.00;99.90
23259;DHT22;11798;51.528;7.240;2023-07-22T09:41:55;20.00;99.90
23259;DHT22;11798;51.528;7.240;2023-07-22T09:44:22;20.10;99.90
23259;DHT22;11798;51.528;7.240;2023-07-22T09:46:48;20.10;99.90
23259;DHT22;11798;51.528;7.240;2023-07-22T09:49:17;20.10;99.90
23259;DHT22;11798;51.528;7.240;2023-07-22T09:51:43;20.30;99.90
23259;DHT22;11798;51.528;7.240;2023-07-22T09:54:09;20.20;99.90
23259;DHT22;11798;51.528;7.240;2023-07-22T09:56:46;20.30;99.90
23259;DHT22;11798;51.528;7.240;2023-07-22T09:59:12;20.30;99.90
23259;DHT22;11798;51.528;7.240;2023-07-22T10:01:39;20.30;99.90
23259;DHT22;11798;51.528;7.240;2023-07-22T10:04:06;20.30;99.90
23259;DHT22;11798;51.528;7.240;2023-07-22T10:06:33;20.40;99.90
23259;DHT22;11798;51.528;7.240;2023-07-22T10:09:03;20.20;99.90
23259;DHT22;11798;51.528;7.240;2023-07-22T10:11:34;20.50;99.90
23259;DHT22;11798;51.528;7.240;2023-07-22T10:14:02;20.70;99.90
23259;DHT22;11798;51.528;7.240;2023-07-22T10:16:28;20.50;99.90
23259;DHT22;11798;51.528;7.240;2023-07-22T10:18:54;20.50;99.90
23259;DHT22;11798;51.528;7.240;2023-07-22T10:21:21;20.60;99.90
23259;DHT22;11798;51.528;7.240;2023-07-22T10:23:47;20.80;99.90
23259;DHT22;11798;51.528;7.240;2023-07-22T10:26:17;20.70;99.90
23259;DHT22;11798;51.528;7.240;2023-07-22T10:28:45;20.70;99.90
23259;DHT22;11798;51.528;7.240;2023-07-22T10:31:12;21.00;99.90
23259;DHT22;11798;51.528;7.240;2023-07-22T10:33:38;20.90;99.90
23259;DHT22;11798;51.528;7.240;2023-07-22T10:36:15;20.90;99.90
23259;DHT22;11798;51.528;7.240;2023-07-22T10:38:43;21.00;99.90
23259;DHT22;11798;51.528;7.240;2023-07-22T10:41:15;21.00;99.90
23259;DHT22;11798;51.528;7.240;2023-07-22T10:43:57;21.20;99.90
23259;DHT22;11798;51.528;7.240;2023-07-22T10:46:37;21.20;99.90
23259;DHT22;11798;51.528;7.240;2023-07-22T10:49:16;21.20;99.90
23259;DHT22;11798;51.528;7.240;2023-07-22T10:51:47;21.50;99.90
23259;DHT22;11798;51.528;7.240;2023-07-22T10:54:14;21.40;99.90
23259;DHT22;11798;51.528;7.240;2023-07-22T10:56:44;21.40;99.90
23259;DHT22;11798;51.528;7.240;2023-07-22T10:59:11;21.50;99.90
23259;DHT22;11798;51.528;7.240;2023-07-22T11:01:38;21.50;99.90
23259;DHT22;11798;51.528;7.240;2023-07-22T11:11:57;21.70;99.90
23259;DHT22;11798;51.528;7.240;2023-07-22T11:14:24;21.50;99.90
23259;DHT22;11798;51.528;7.240;2023-07-22T11:16:51;21.70;99.90
23259;DHT22;11798;51.528;7.240;2023-07-22T11:19:19;21.70;99.90
23259;DHT22;11798;51.528;7.240;2023-07-22T11:21:48;21.80;99.90
23259;DHT22;11798;51.528;7.240;2023-07-22T11:24:15;22.00;99.90
23259;DHT22;11798;51.528;7.240;2023-07-22T11:26:41;22.00;99.90
23259;DHT22;11798;51.528;7.240;2023-07-22T11:29:08;21.90;99.90
23259;DHT22;11798;51.528;7.240;2023-07-22T11:31:38;22.10;99.90
23259;DHT22;11798;51.528;7.240;2023-07-22T11:34:08;22.40;99.90
23259;DHT22;11798;51.528;7.240;2023-07-22T11:36:34;22.20;99.90
23259;DHT22;11798;51.528;7.240;2023-07-22T11:39:08;22.40;99.90
23259;DHT22;11798;51.528;7.240;2023-07-22T11:41:35;22.40;99.90
23259;DHT22;11798;51.528;7.240;2023-07-22T11:44:02;22.20;99.90
23259;DHT22;11798;51.528;7.240;2023-07-22T11:46:28;22.20;99.90
23259;DHT22;11798;51.528;7.240;2023-07-22T11:48:55;22.20;99.90
23259;DHT22;11798;51.528;7.240;2023-07-22T11:51:24;22.30;99.90
23259;DHT22;11798;51.528;7.240;2023-07-22T11:53:52;22.50;99.90
23259;DHT22;11798;51.528;7.240;2023-07-22T11:56:22;22.60;99.90
23259;DHT22;11798;51.528;7.240;2023-07-22T11:58:50;22.30;99.90
23259;DHT22;11798;51.528;7.240;2023-07-22T12:01:16;22.20;99.90
23259;DHT22;11798;51.528;7.240;2023-07-22T12:03:41;22.10;99.90
23259;DHT22;11798;51.528;7.240;2023-07-22T12:06:07;22.30;99.90
23259;DHT22;11798;51.528;7.240;2023-07-22T12:08:33;22.30;99.90
23259;DHT22;11798;51.528;7.240;2023-07-22T12:11:00;22.50;99.90
23259;DHT22;11798;51.528;7.240;2023-07-22T12:13:26;22.80;99.90
23259;DHT22;11798;51.528;7.240;2023-07-22T12:16:02;23.00;99.90
23259;DHT22;11798;51.528;7.240;2023-07-22T12:18:40;23.10;99.90
23259;DHT22;11798;51.528;7.240;2023-07-22T12:21:05;23.00;99.90
23259;DHT22;11798;51.528;7.240;2023-07-22T12:23:31;22.90;99.90
23259;DHT22;11798;51.528;7.240;2023-07-22T12:25:57;22.70;99.90
23259;DHT22;11798;51.528;7.240;2023-07-22T12:28:22;22.50;99.90
23259;DHT22;11798;51.528;7.240;2023-07-22T12:30:48;22.70;99.90
23259;DHT22;11798;51.528;7.240;2023-07-22T12:33:14;22.70;99.90
23259;DHT22;11798;51.528;7.240;2023-07-22T12:35:39;22.60;99.90
23259;DHT22;11798;51.528;7.240;2023-07-22T12:38:05;22.60;99.90
23259;DHT22;11798;51.528;7.240;2023-07-22T12:40:31;22.40;99.90
23259;DHT22;11798;51.528;7.240;2023-07-22T12:42:56;22.40;99.90
23259;DHT22;11798;51.528;7.240;2023-07-22T12:45:22;22.50;99.90
23259;DHT22;11798;51.528;7.240;2023-07-22T12:47:48;22.40;99.90
23259;DHT22;11798;51.528;7.240;2023-07-22T12:50:14;22.60;99.90
23259;DHT22;11798;51.528;7.240;2023-07-22T12:52:39;22.60;99.90
23259;DHT22;11798;51.528;7.240;2023-07-22T12:55:05;22.50;99.90
23259;DHT22;11798;51.528;7.240;2023-07-22T12:57:31;22.60;99.90
23259;DHT22;11798;51.528;7.240;2023-07-22T12:59:56;22.60;99.90
23259;DHT22;11798;51.528;7.240;2023-07-22T13:02:22;22.50;99.90
23259;DHT22;11798;51.528;7.240;2023-07-22T13:04:48;22.50;99.90
23259;DHT22;11798;51.528;7.240;2023-07-22T13:07:14;22.60;99.90
23259;DHT22;11798;51.528;7.240;2023-07-22T13:09:40;22.60;99.90
23259;DHT22;11798;51.528;7.240;2023-07-22T13:12:07;22.60;99.90
23259;DHT22;11798;51.528;7.240;2023-07-22T13:14:33;22.60;99.90
23259;DHT22;11798;51.528;7.240;2023-07-22T13:16:59;22.80;99.90
23259;DHT22;11798;51.528;7.240;2023-07-22T13:19:24;22.90;99.90
23259;DHT22;11798;51.528;7.240;2023-07-22T13:21:50;22.90;99.90
23259;DHT22;11798;51.528;7.240;2023-07-22T13:24:15;23.10;99.90
23259;DHT22;11798;51.528;7.240;2023-07-22T13:26:41;23.20;99.90
23259;DHT22;11798;51.528;7.240;2023-07-22T13:29:06;23.00;99.90
23259;DHT22;11798;51.528;7.240;2023-07-22T13:31:34;23.10;99.90
23259;DHT22;11798;51.528;7.240;2023-07-22T13:33:59;23.00;99.90
23259;DHT22;11798;51.528;7.240;2023-07-22T13:36:25;22.80;99.90
23259;DHT22;11798;51.528;7.240;2023-07-22T13:38:51;22.90;99.90
23259;DHT22;11798;51.528;7.240;2023-07-22T13:41:16;22.90;99.90
23259;DHT22;11798;51.528;7.240;2023-07-22T13:43:42;22.90;99.90
23259;DHT22;11798;51.528;7.240;2023-07-22T13:46:07;22.90;99.90
23259;DHT22;11798;51.528;7.240;2023-07-22T13:48:34;23.10;99.90
23259;DHT22;11798;51.528;7.240;2023-07-22T13:50:59;23.30;99.90
23259;DHT22;11798;51.528;7.240;2023-07-22T13:53:25;23.40;99.90
23259;DHT22;11798;51.528;7.240;2023-07-22T13:55:50;23.60;99.90
23259;DHT22;11798;51.528;7.240;2023-07-22T13:58:16;23.70;99.90
23259;DHT22;11798;51.528;7.240;2023-07-22T14:00:42;23.60;99.90
23259;DHT22;11798;51.528;7.240;2023-07-22T14:03:07;23.40;99.90
23259;DHT22;11798;51.528;7.240;2023-07-22T14:05:33;23.40;99.90
23259;DHT22;11798;51.528;7.240;2023-07-22T14:07:58;23.10;99.90
23259;DHT22;11798;51.528;7.240;2023-07-22T14:10:25;23.10;99.90
23259;DHT22;11798;51.528;7.240;2023-07-22T14:12:51;23.10;99.90
23259;DHT22;11798;51.528;7.240;2023-07-22T14:15:16;23.20;99.90
23259;DHT22;11798;51.528;7.240;2023-07-22T14:17:42;23.70;99.90
23259;DHT22;11798;51.528;7.240;2023-07-22T14:20:08;23.60;99.90
23259;DHT22;11798;51.528;7.240;2023-07-22T14:22:33;23.30;99.90
23259;DHT22;11798;51.528;7.240;2023-07-22T14:24:59;23.00;99.90
23259;DHT22;11798;51.528;7.240;2023-07-22T14:27:25;23.10;99.90
23259;DHT22;11798;51.528;7.240;2023-07-22T14:29:50;23.40;99.90
23259;DHT22;11798;51.528;7.240;2023-07-22T14:32:16;23.70;99.90
23259;DHT22;11798;51.528;7.240;2023-07-22T14:34:42;23.90;99.90
23259;DHT22;11798;51.528;7.240;2023-07-22T14:37:07;24.20;99.90
23259;DHT22;11798;51.528;7.240;2023-07-22T14:39:33;23.90;99.90
23259;DHT22;11798;51.528;7.240;2023-07-22T14:41:59;24.00;99.90
23259;DHT22;11798;51.528;7.240;2023-07-22T14:44:24;24.10;99.90
23259;DHT22;11798;51.528;7.240;2023-07-22T14:49:21;24.50;99.90
23259;DHT22;11798;51.528;7.240;2023-07-22T14:51:46;24.60;99.90
23259;DHT22;11798;51.528;7.240;2023-07-22T14:54:12;24.50;99.90
23259;DHT22;11798;51.528;7.240;2023-07-22T14:56:38;24.30;99.90
23259;DHT22;11798;51.528;7.240;2023-07-22T14:59:03;24.10;99.90
23259;DHT22;11798;51.528;7.240;2023-07-22T15:01:37;24.30;99.90
23259;DHT22;11798;51.528;7.240;2023-07-22T15:04:03;24.10;99.90
23259;DHT22;11798;51.528;7.240;2023-07-22T15:06:28;24.20;99.90
23259;DHT22;11798;51.528;7.240;2023-07-22T15:08:54;24.20;99.90
23259;DHT22;11798;51.528;7.240;2023-07-22T15:11:19;23.90;99.90
23259;DHT22;11798;51.528;7.240;2023-07-22T15:13:45;23.80;99.90
23259;DHT22;11798;51.528;7.240;2023-07-22T15:16:11;23.80;99.90
23259;DHT22;11798;51.528;7.240;2023-07-22T15:18:37;23.80;99.90
23259;DHT22;11798;51.528;7.240;2023-07-22T15:21:02;23.70;99.90
23259;DHT22;11798;51.528;7.240;2023-07-22T15:23:28;23.70;99.90
23259;DHT22;11798;51.528;7.240;2023-07-22T15:25:53;23.70;99.90
23259;DHT22;11798;51.528;7.240;2023-07-22T15:28:19;23.60;99.90
23259;DHT22;11798;51.528;7.240;2023-07-22T15:30:44;23.60;99.90
23259;DHT22;11798;51.528;7.240;2023-07-22T15:33:10;23.90;99.90
23259;DHT22;11798;51.528;7.240;2023-07-22T15:35:36;23.90;99.90
23259;DHT22;11798;51.528;7.240;2023-07-22T15:38:01;24.30;99.90